createdAt,value
2022-11-02T00:00:30.631Z,56.70
2022-11-02T00:02:59.734Z,56.70
2022-11-02T00:05:31.346Z,56.70
2022-11-02T00:08:05.610Z,56.70
2022-11-02T00:10:34.843Z,56.70
2022-11-02T00:13:06.645Z,57.30
2022-11-02T00:15:36.987Z,56.90
2022-11-02T00:18:12.727Z,57.00
2022-11-02T00:20:43.580Z,57.20
2022-11-02T00:23:14.671Z,57.20
2022-11-02T00:25:48.733Z,57.30
2022-11-02T00:28:19.930Z,57.30
2022-11-02T00:30:47.871Z,57.40
2022-11-02T00:33:16.847Z,57.40
2022-11-02T00:35:46.547Z,57.40
2022-11-02T00:38:13.559Z,57.50
2022-11-02T00:40:42.113Z,57.50
2022-11-02T00:43:11.069Z,57.50
2022-11-02T00:45:38.624Z,57.60
2022-11-02T00:48:12.407Z,57.70
2022-11-02T00:50:41.120Z,57.80
2022-11-02T00:53:09.652Z,57.80
2022-11-02T00:55:43.505Z,58.00
2022-11-02T00:58:10.543Z,58.00
2022-11-02T01:00:39.446Z,58.10
2022-11-02T01:03:06.127Z,58.10
2022-11-02T01:05:32.728Z,58.30
2022-11-02T01:08:04.042Z,58.30
2022-11-02T01:16:04.145Z,58.80
2022-11-02T01:18:38.241Z,58.90
2022-11-02T01:21:10.500Z,59.00
2022-11-02T01:23:39.466Z,59.00
2022-11-02T01:26:12.559Z,59.00
2022-11-02T01:28:43.051Z,59.00
2022-11-02T01:31:13.056Z,59.00
2022-11-02T01:33:44.896Z,58.90
2022-11-02T01:36:14.029Z,59.00
2022-11-02T01:38:42.262Z,59.10
2022-11-02T01:41:15.864Z,59.20
2022-11-02T01:43:48.455Z,59.40
2022-11-02T01:46:29.098Z,59.40
2022-11-02T01:49:03.615Z,59.50
2022-11-02T01:51:42.531Z,59.70
2022-11-02T01:54:29.487Z,59.60
2022-11-02T01:57:04.583Z,59.60
2022-11-02T01:59:46.206Z,59.60
2022-11-02T02:02:20.634Z,59.60
2022-11-02T02:04:52.409Z,59.70
2022-11-02T02:07:21.991Z,59.70
2022-11-02T02:09:51.567Z,59.80
2022-11-02T02:12:22.220Z,59.90
2022-11-02T02:14:51.071Z,59.90
2022-11-02T02:17:24.469Z,59.90
2022-11-02T02:20:47.313Z,60.00
2022-11-02T02:23:32.943Z,60.00
2022-11-02T02:26:39.487Z,59.90
2022-11-02T02:29:18.696Z,59.70
2022-11-02T02:32:02.640Z,59.50
2022-11-02T02:34:39.302Z,59.70
2022-11-02T02:37:17.670Z,59.50
2022-11-02T02:40:03.462Z,59.80
2022-11-02T02:42:51.022Z,59.90
2022-11-02T02:46:07.576Z,60.00
2022-11-02T02:48:37.134Z,60.00
2022-11-02T02:51:12.375Z,59.90
2022-11-02T02:53:45.030Z,60.10
2022-11-02T02:56:21.088Z,60.20
2022-11-02T02:58:56.556Z,60.10
2022-11-02T03:01:29.258Z,60.20
2022-11-02T03:03:56.294Z,60.30
2022-11-02T03:06:27.246Z,60.20
2022-11-02T03:09:01.852Z,60.30
2022-11-02T03:11:31.913Z,60.40
2022-11-02T03:14:07.616Z,60.40
2022-11-02T03:16:43.848Z,60.20
2022-11-02T03:19:20.433Z,60.20
2022-11-02T03:21:55.436Z,60.20
2022-11-02T03:24:28.132Z,60.30
2022-11-02T03:27:30.765Z,60.40
2022-11-02T03:30:19.077Z,60.30
2022-11-02T03:33:07.988Z,60.40
2022-11-02T03:35:49.731Z,60.50
2022-11-02T03:38:37.042Z,60.40
2022-11-02T03:41:05.009Z,60.60
2022-11-02T03:43:37.145Z,60.50
2022-11-02T03:46:10.801Z,60.60
2022-11-02T03:48:48.639Z,60.60
2022-11-02T03:51:22.127Z,60.80
2022-11-02T03:53:53.446Z,60.80
2022-11-02T03:56:37.334Z,60.80
2022-11-02T03:59:05.359Z,61.00
2022-11-02T04:01:38.822Z,60.80
2022-11-02T04:04:08.909Z,60.90
2022-11-02T04:06:36.838Z,60.80
2022-11-02T04:09:05.696Z,60.80
2022-11-02T04:11:55.572Z,60.80
2022-11-02T04:14:37.892Z,60.80
2022-11-02T04:20:00.793Z,60.80
2022-11-02T04:22:48.359Z,60.80
2022-11-02T04:25:20.182Z,60.90
2022-11-02T04:28:07.807Z,60.90
2022-11-02T04:30:38.214Z,60.90
2022-11-02T04:33:25.960Z,60.80
2022-11-02T04:36:07.069Z,60.80
2022-11-02T04:38:41.923Z,60.90
2022-11-02T04:41:35.386Z,60.80
2022-11-02T04:44:04.144Z,60.80
2022-11-02T04:46:33.093Z,60.80
2022-11-02T04:49:01.288Z,60.90
2022-11-02T04:51:31.420Z,60.80
2022-11-02T04:53:58.963Z,60.90
2022-11-02T04:56:28.501Z,60.90
2022-11-02T04:59:01.742Z,61.00
2022-11-02T05:01:31.043Z,61.00
2022-11-02T05:03:59.986Z,60.90
2022-11-02T05:06:29.232Z,60.90
2022-11-02T05:08:58.498Z,60.90
2022-11-02T05:11:27.357Z,60.80
2022-11-02T05:13:58.399Z,60.90
2022-11-02T05:16:25.071Z,60.90
2022-11-02T05:18:54.234Z,61.00
2022-11-02T05:21:24.992Z,60.90
2022-11-02T05:23:53.974Z,60.80
2022-11-02T05:26:21.030Z,60.90
2022-11-02T05:28:52.595Z,60.90
2022-11-02T05:31:20.168Z,60.90
2022-11-02T05:33:48.261Z,60.90
2022-11-02T05:36:18.635Z,60.90
2022-11-02T05:38:50.181Z,60.90
2022-11-02T05:41:19.121Z,60.90
2022-11-02T05:43:47.188Z,61.00
2022-11-02T05:46:16.534Z,61.00
2022-11-02T05:48:43.263Z,60.90
2022-11-02T05:51:10.331Z,60.90
2022-11-02T05:53:38.350Z,60.90
2022-11-02T05:56:07.070Z,60.90
2022-11-02T05:58:34.048Z,60.90
2022-11-02T06:01:05.810Z,60.90
2022-11-02T06:03:32.831Z,61.00
2022-11-02T06:06:00.984Z,61.00
2022-11-02T06:08:28.060Z,61.00
2022-11-02T06:10:55.018Z,61.00
2022-11-02T06:13:21.840Z,61.00
2022-11-02T06:15:48.517Z,61.10
2022-11-02T06:18:17.058Z,61.10
2022-11-02T06:20:46.154Z,61.20
2022-11-02T06:23:14.411Z,61.20
2022-11-02T06:25:41.083Z,61.30
2022-11-02T06:28:07.688Z,61.40
2022-11-02T06:30:34.742Z,61.40
2022-11-02T06:33:02.954Z,61.50
2022-11-02T06:35:32.659Z,61.50
2022-11-02T06:37:59.380Z,61.60
2022-11-02T06:40:26.694Z,61.60
2022-11-02T06:43:15.440Z,61.60
2022-11-02T06:45:45.154Z,61.60
2022-11-02T06:48:11.820Z,62.00
2022-11-02T06:50:38.427Z,61.40
2022-11-02T06:53:05.206Z,61.40
2022-11-02T06:55:32.039Z,61.30
2022-11-02T06:57:58.661Z,61.40
2022-11-02T07:00:25.352Z,61.40
2022-11-02T07:03:03.627Z,61.40
2022-11-02T07:05:31.008Z,61.50
2022-11-02T07:07:57.855Z,61.40
2022-11-02T07:10:24.863Z,61.40
2022-11-02T07:12:55.576Z,61.50
2022-11-02T07:15:24.001Z,61.60
2022-11-02T07:17:52.827Z,61.60
2022-11-02T07:20:19.790Z,61.70
2022-11-02T07:23:00.730Z,61.70
2022-11-02T07:25:32.691Z,61.60
2022-11-02T07:28:00.567Z,61.50
2022-11-02T07:30:28.484Z,61.40
2022-11-02T07:32:55.319Z,61.40
2022-11-02T07:35:22.311Z,61.40
2022-11-02T07:38:00.113Z,61.50
2022-11-02T07:40:28.203Z,61.60
2022-11-02T07:42:57.552Z,61.50
2022-11-02T07:45:36.583Z,61.60
2022-11-02T07:48:03.385Z,61.60
2022-11-02T07:50:32.290Z,61.60
2022-11-02T07:52:59.182Z,61.60
2022-11-02T07:55:30.577Z,61.60
2022-11-02T07:57:59.634Z,61.70
2022-11-02T08:00:29.792Z,61.70
2022-11-02T08:02:58.110Z,61.80
2022-11-02T08:05:25.918Z,61.70
2022-11-02T08:08:03.710Z,61.70
2022-11-02T08:10:35.433Z,61.90
2022-11-02T08:13:06.366Z,61.70
2022-11-02T08:15:33.020Z,61.70
2022-11-02T08:18:21.271Z,61.70
2022-11-02T08:20:48.501Z,61.90
2022-11-02T08:23:17.448Z,61.80
2022-11-02T08:25:45.766Z,61.80
2022-11-02T08:28:21.500Z,61.80
2022-11-02T08:30:48.328Z,61.70
2022-11-02T08:33:17.122Z,61.80
2022-11-02T08:35:45.260Z,61.80
2022-11-02T08:38:12.463Z,61.80
2022-11-02T08:40:39.587Z,61.60
2022-11-02T08:43:14.396Z,61.60
2022-11-02T08:46:13.246Z,61.80
2022-11-02T08:48:30.186Z,61.70
2022-11-02T08:50:56.867Z,61.70
2022-11-02T08:53:23.511Z,61.60
2022-11-02T08:55:50.126Z,61.60
2022-11-02T08:58:17.902Z,61.40
2022-11-02T09:00:44.979Z,61.40
2022-11-02T09:03:13.692Z,61.30
2022-11-02T09:05:45.067Z,61.30
2022-11-02T09:08:14.197Z,61.30
2022-11-02T09:10:40.986Z,61.30
2022-11-02T09:13:11.210Z,61.40
2022-11-02T09:15:38.661Z,61.30
2022-11-02T09:18:07.150Z,61.50
2022-11-02T09:20:34.823Z,61.40
2022-11-02T09:23:01.960Z,61.40
2022-11-02T09:25:28.795Z,61.20
2022-11-02T09:27:56.826Z,61.10
2022-11-02T09:30:25.098Z,61.00
2022-11-02T09:33:02.135Z,60.80
2022-11-02T09:35:32.008Z,60.90
2022-11-02T09:37:58.982Z,60.90
2022-11-02T09:40:31.305Z,60.90
2022-11-02T09:43:32.373Z,61.00
2022-11-02T09:46:09.933Z,60.60
2022-11-02T09:48:52.324Z,60.00
2022-11-02T09:51:42.050Z,60.60
2022-11-02T09:54:43.944Z,59.60
2022-11-02T09:57:14.790Z,59.60
2022-11-02T09:59:43.554Z,59.60
2022-11-02T10:02:37.750Z,59.80
2022-11-02T10:05:18.790Z,59.60
2022-11-02T10:08:32.329Z,59.60
2022-11-02T10:11:24.282Z,58.40
2022-11-02T10:14:02.295Z,58.60
2022-11-02T10:16:37.989Z,58.90
2022-11-02T10:19:13.935Z,58.70
2022-11-02T10:21:45.044Z,58.90
2022-11-02T10:24:28.685Z,58.80
2022-11-02T10:27:04.694Z,58.50
2022-11-02T10:29:34.905Z,58.80
2022-11-02T10:32:02.915Z,59.10
2022-11-02T10:34:30.427Z,58.40
2022-11-02T10:37:19.036Z,58.20
2022-11-02T10:39:45.639Z,57.90
2022-11-02T10:42:34.878Z,58.10
2022-11-02T10:45:29.482Z,58.00
2022-11-02T10:48:16.918Z,57.80
2022-11-02T10:50:47.776Z,57.60
2022-11-02T10:53:40.108Z,57.80
2022-11-02T10:56:11.170Z,57.80
2022-11-02T10:58:43.200Z,57.50
2022-11-02T11:01:12.401Z,57.40
2022-11-02T11:03:59.460Z,57.20
2022-11-02T11:06:37.779Z,57.60
2022-11-02T11:09:17.981Z,57.20
2022-11-02T11:11:58.002Z,57.20
2022-11-02T11:20:37.095Z,57.10
2022-11-02T11:23:08.665Z,57.00
2022-11-02T11:25:39.741Z,56.90
2022-11-02T11:28:22.761Z,57.00
2022-11-02T11:31:06.306Z,56.90
2022-11-02T11:33:41.351Z,56.50
2022-11-02T11:36:10.357Z,56.30
2022-11-02T11:38:44.789Z,56.00
2022-11-02T11:41:12.418Z,56.10
2022-11-02T11:43:42.544Z,55.70
2022-11-02T11:46:13.159Z,55.80
2022-11-02T11:48:41.075Z,55.90
2022-11-02T11:51:41.381Z,56.20
2022-11-02T11:54:26.939Z,56.00
2022-11-02T11:56:59.133Z,56.20
2022-11-02T11:59:45.008Z,56.10
2022-11-02T12:02:27.509Z,56.10
2022-11-02T12:05:14.973Z,56.00
2022-11-02T12:08:11.361Z,56.50
2022-11-02T12:11:19.708Z,56.60
2022-11-02T12:13:55.852Z,56.40
2022-11-02T12:16:37.268Z,56.40
2022-11-02T12:19:10.426Z,56.00
2022-11-02T12:21:48.965Z,55.60
2022-11-02T12:24:44.480Z,55.50
2022-11-02T12:27:38.231Z,55.30
2022-11-02T12:30:24.769Z,55.20
2022-11-02T12:33:33.253Z,55.10
2022-11-02T12:36:06.199Z,54.60
2022-11-02T12:38:39.235Z,54.70
2022-11-02T12:41:12.539Z,54.80
2022-11-02T12:43:45.427Z,54.60
2022-11-02T12:46:49.662Z,54.80
2022-11-02T12:49:47.225Z,54.10
2022-11-02T12:52:26.973Z,54.50
2022-11-02T12:54:59.793Z,54.60
2022-11-02T12:57:30.761Z,54.40
2022-11-02T13:00:15.374Z,53.60
2022-11-02T13:03:07.181Z,53.20
2022-11-02T13:05:39.173Z,52.80
2022-11-02T13:09:07.036Z,52.70
2022-11-02T13:11:42.392Z,52.50
2022-11-02T13:14:19.823Z,53.20
2022-11-02T13:16:57.409Z,52.40
2022-11-02T13:19:33.758Z,52.60
2022-11-02T13:22:02.900Z,52.50
2022-11-02T13:24:40.239Z,52.60
2022-11-02T13:27:34.811Z,52.10
2022-11-02T13:30:09.746Z,52.60
2022-11-02T13:32:43.772Z,52.50
2022-11-02T13:35:18.687Z,52.30
2022-11-02T13:37:51.934Z,52.40
2022-11-02T13:40:33.774Z,52.40
2022-11-02T13:43:11.080Z,52.30
2022-11-02T13:45:42.943Z,52.50
2022-11-02T13:48:15.367Z,52.60
2022-11-02T13:50:50.951Z,52.70
2022-11-02T13:53:27.371Z,52.70
2022-11-02T13:56:08.016Z,53.00
2022-11-02T13:58:39.736Z,53.10
2022-11-02T14:01:09.978Z,53.20
2022-11-02T14:04:01.854Z,52.70
2022-11-02T14:06:32.031Z,52.20
2022-11-02T14:09:02.921Z,52.20
2022-11-02T14:11:47.968Z,51.70
2022-11-02T14:14:24.732Z,51.60
2022-11-02T14:16:54.258Z,51.60
2022-11-02T14:19:22.168Z,51.90
2022-11-02T14:21:53.718Z,51.90
2022-11-02T14:24:38.267Z,51.40
2022-11-02T14:27:24.803Z,50.90
2022-11-02T14:29:53.786Z,51.20
2022-11-02T14:32:20.374Z,51.50
2022-11-02T14:34:51.146Z,51.30
2022-11-02T14:37:42.232Z,51.40
2022-11-02T14:40:52.855Z,51.20
2022-11-02T14:43:19.428Z,51.20
2022-11-02T14:46:16.423Z,51.50
2022-11-02T14:48:51.618Z,51.00
2022-11-02T14:51:27.497Z,51.40
2022-11-02T14:53:58.682Z,51.10
2022-11-02T14:56:45.420Z,51.40
2022-11-02T14:59:22.295Z,51.60
2022-11-02T15:02:18.495Z,51.20
2022-11-02T15:04:51.134Z,51.30
2022-11-02T15:07:30.739Z,51.60
2022-11-02T15:10:24.543Z,51.70
2022-11-02T15:13:20.243Z,51.70
2022-11-02T15:15:56.156Z,51.50
2022-11-02T15:18:34.045Z,51.50
2022-11-02T15:21:12.706Z,51.60
2022-11-02T15:23:55.860Z,51.60
2022-11-02T15:26:39.227Z,51.80
2022-11-02T15:29:36.829Z,51.80
2022-11-02T15:32:07.256Z,51.70
2022-11-02T15:34:49.667Z,51.90
2022-11-02T15:37:29.302Z,51.70
2022-11-02T15:40:04.858Z,52.20
2022-11-02T15:42:48.090Z,52.10
2022-11-02T15:46:00.156Z,52.30
2022-11-02T15:48:41.464Z,52.30
2022-11-02T15:51:20.220Z,52.30
2022-11-02T15:54:11.540Z,52.70
2022-11-02T15:56:59.679Z,52.50
2022-11-02T15:59:47.330Z,52.70
2022-11-02T16:02:29.270Z,52.50
2022-11-02T16:04:59.952Z,52.30
2022-11-02T16:07:33.506Z,52.60
2022-11-02T16:10:28.268Z,52.30
2022-11-02T16:12:58.950Z,52.20
2022-11-02T16:15:26.530Z,52.60
2022-11-02T16:17:53.545Z,52.80
2022-11-02T16:20:28.288Z,52.70
2022-11-02T16:23:23.342Z,52.80
2022-11-02T16:25:52.196Z,52.80
2022-11-02T16:28:25.660Z,53.00
2022-11-02T16:31:01.132Z,53.10
2022-11-02T16:33:31.506Z,53.20
2022-11-02T16:35:59.395Z,53.60
2022-11-02T16:38:29.178Z,53.60
2022-11-02T16:40:56.039Z,53.90
2022-11-02T16:43:24.598Z,54.00
2022-11-02T16:45:54.656Z,53.90
2022-11-02T16:48:27.536Z,54.00
2022-11-02T16:51:19.911Z,54.10
2022-11-02T16:53:46.658Z,54.10
2022-11-02T16:56:32.012Z,54.20
2022-11-02T16:59:04.231Z,54.30
2022-11-02T17:01:37.634Z,54.40
2022-11-02T17:04:27.031Z,54.60
2022-11-02T17:06:58.132Z,54.80
2022-11-02T17:09:30.387Z,54.70
2022-11-02T17:12:04.949Z,54.70
2022-11-02T17:14:34.862Z,54.80
2022-11-02T17:17:05.986Z,55.00
2022-11-02T17:19:39.785Z,55.10
2022-11-02T17:22:26.247Z,55.20
2022-11-02T17:25:16.839Z,55.40
2022-11-02T17:27:43.554Z,55.30
2022-11-02T17:30:35.182Z,55.30
2022-11-02T17:33:15.469Z,55.50
2022-11-02T17:35:47.262Z,55.50
2022-11-02T17:38:13.948Z,55.50
2022-11-02T17:40:41.298Z,55.50
2022-11-02T17:43:08.123Z,55.60
2022-11-02T17:45:37.387Z,55.50
2022-11-02T17:48:06.621Z,55.70
2022-11-02T17:50:35.494Z,55.80
2022-11-02T17:53:06.940Z,56.00
2022-11-02T17:55:34.977Z,56.00
2022-11-02T17:58:01.625Z,56.00
2022-11-02T18:00:28.827Z,55.90
2022-11-02T18:02:59.787Z,56.00
2022-11-02T18:05:33.055Z,56.00
2022-11-02T18:07:59.820Z,56.10
2022-11-02T18:10:32.581Z,56.10
2022-11-02T18:12:59.305Z,56.00
2022-11-02T18:15:29.542Z,56.00
2022-11-02T18:18:01.157Z,56.70
2022-11-02T18:20:28.654Z,56.20
2022-11-02T18:22:59.568Z,56.10
2022-11-02T18:25:31.964Z,56.30
2022-11-02T18:28:01.902Z,56.30
2022-11-02T18:30:34.793Z,56.20
2022-11-02T18:33:07.361Z,56.10
2022-11-02T18:35:37.195Z,56.20
2022-11-02T18:38:04.338Z,56.30
2022-11-02T18:40:35.421Z,56.20
2022-11-02T18:43:02.472Z,56.30
2022-11-02T18:48:00.929Z,56.50
2022-11-02T18:50:27.563Z,56.50
2022-11-02T18:52:54.176Z,56.60
2022-11-02T18:55:23.513Z,56.50
2022-11-02T18:57:50.832Z,56.60
2022-11-02T19:00:17.755Z,56.60
2022-11-02T19:02:46.759Z,56.60
2022-11-02T19:05:32.953Z,56.70
2022-11-02T19:08:22.287Z,56.70
2022-11-02T19:10:48.952Z,56.60
2022-11-02T19:13:15.976Z,56.50
2022-11-02T19:15:43.053Z,57.00
2022-11-02T19:18:11.002Z,56.90
2022-11-02T19:20:40.001Z,56.80
2022-11-02T19:23:08.292Z,56.80
2022-11-02T19:25:35.049Z,56.90
2022-11-02T19:28:04.457Z,57.00
2022-11-02T19:30:36.990Z,57.10
2022-11-02T19:33:09.031Z,57.20
2022-11-02T19:35:38.226Z,57.10
2022-11-02T19:38:05.565Z,57.20
2022-11-02T19:40:33.736Z,57.20
2022-11-02T19:43:02.858Z,57.10
2022-11-02T19:45:43.857Z,57.00
2022-11-02T19:48:12.924Z,57.00
2022-11-02T19:50:39.559Z,57.00
2022-11-02T19:53:08.629Z,57.00
2022-11-02T19:55:37.783Z,57.00
2022-11-02T19:58:07.131Z,57.10
2022-11-02T20:00:34.057Z,57.20
2022-11-02T20:03:03.939Z,57.20
2022-11-02T20:05:39.695Z,57.10
2022-11-02T20:08:14.891Z,57.10
2022-11-02T20:10:42.548Z,57.10
2022-11-02T20:13:11.358Z,57.30
2022-11-02T20:15:40.568Z,57.30
2022-11-02T20:18:19.488Z,57.40
2022-11-02T20:20:46.946Z,57.50
2022-11-02T20:23:18.832Z,57.50
2022-11-02T20:25:47.624Z,57.50
2022-11-02T20:28:14.412Z,57.60
2022-11-02T20:30:46.151Z,57.70
2022-11-02T20:33:15.177Z,57.80
2022-11-02T20:35:44.765Z,57.80
2022-11-02T20:38:11.443Z,57.80
2022-11-02T20:40:41.352Z,57.90
2022-11-02T20:43:10.675Z,57.90
2022-11-02T20:45:41.826Z,58.00
2022-11-02T20:48:11.227Z,58.20
2022-11-02T20:50:40.360Z,58.10
2022-11-02T20:53:08.469Z,58.20
2022-11-02T20:55:38.805Z,58.20
2022-11-02T20:58:06.646Z,58.20
2022-11-02T21:00:33.629Z,58.30
2022-11-02T21:03:00.249Z,58.30
2022-11-02T21:05:27.868Z,58.40
2022-11-02T21:07:56.888Z,58.40
2022-11-02T21:10:23.544Z,58.50
2022-11-02T21:13:08.862Z,58.50
2022-11-02T21:15:36.125Z,58.60
2022-11-02T21:18:02.837Z,58.60
2022-11-02T21:20:34.446Z,58.70
2022-11-02T21:23:03.100Z,58.70
2022-11-02T21:25:34.143Z,58.70
2022-11-02T21:28:01.040Z,58.70
2022-11-02T21:30:34.073Z,58.70
2022-11-02T21:33:04.840Z,58.80
2022-11-02T21:35:31.619Z,58.90
2022-11-02T21:38:03.723Z,58.80
2022-11-02T21:40:35.709Z,59.00
2022-11-02T21:43:02.453Z,59.00
2022-11-02T21:45:36.630Z,59.10
2022-11-02T21:48:04.906Z,59.00
2022-11-02T21:50:31.506Z,59.10
2022-11-02T21:53:00.266Z,59.10
2022-11-02T21:55:26.922Z,59.20
2022-11-02T21:57:53.596Z,59.20
2022-11-02T22:00:25.665Z,59.40
2022-11-02T22:02:53.487Z,59.30
2022-11-02T22:05:42.323Z,59.30
2022-11-02T22:11:03.807Z,59.30
2022-11-02T22:13:33.466Z,59.30
2022-11-02T22:16:20.197Z,59.30
2022-11-02T22:18:48.529Z,59.60
2022-11-02T22:21:19.281Z,59.40
2022-11-02T22:23:50.651Z,59.60
2022-11-02T22:26:20.676Z,59.70
2022-11-02T22:28:48.234Z,59.70
2022-11-02T22:31:27.095Z,59.70
2022-11-02T22:33:58.288Z,60.00
2022-11-02T22:36:27.710Z,59.90
2022-11-02T22:38:55.882Z,59.90
2022-11-02T22:41:25.404Z,60.00
2022-11-02T22:43:57.676Z,60.00
2022-11-02T22:46:32.668Z,60.10
2022-11-02T22:49:02.680Z,60.20
2022-11-02T22:51:35.375Z,60.20
2022-11-02T22:54:04.136Z,60.40
2022-11-02T22:56:32.062Z,60.40
2022-11-02T22:59:01.642Z,60.40
2022-11-02T23:01:30.335Z,60.50
2022-11-02T23:03:57.689Z,60.60
2022-11-02T23:06:27.333Z,60.70
2022-11-02T23:08:55.759Z,60.80
2022-11-02T23:11:27.549Z,60.80
2022-11-02T23:14:07.962Z,60.80
2022-11-02T23:16:37.457Z,60.90
2022-11-02T23:19:30.974Z,60.90
2022-11-02T23:22:17.980Z,61.00
2022-11-02T23:25:19.210Z,61.10
2022-11-02T23:28:05.566Z,61.10
2022-11-02T23:30:53.175Z,61.20
2022-11-02T23:33:22.826Z,61.40
2022-11-02T23:36:08.579Z,61.40
2022-11-02T23:38:56.503Z,61.50
2022-11-02T23:41:23.119Z,61.70
2022-11-02T23:43:49.810Z,61.60
2022-11-02T23:46:20.839Z,61.80
2022-11-02T23:48:52.867Z,61.90
2022-11-02T23:51:40.777Z,61.90
2022-11-02T23:54:26.284Z,61.90
2022-11-02T23:56:55.239Z,61.90
2022-11-02T23:59:21.915Z,61.90
